Time;durP1;ratioP1;P1;durP2;ratioP2;P2;SDS_P1;SDS_P2;PMS_P1;PMS_P2;Temp;Humidity;BMP_temperature;BMP_pressure;BME280_temperature;BME280_humidity;BME280_pressure;Samples;Min_cycle;Max_cycle;Signal;HPM_P1;HPM_P2
2022/06/03 11:13:39;;;;;;;;;15.25;13.00;;;;;27.07;41.75;101095.75;5043901;28;45569;-82
2022/06/03 11:16:24;;;;;;;;;14.75;12.00;;;;;27.61;40.55;101096.06;5043664;28;45450;-81
2022/06/03 11:18:50;;;;;;;;;10.75;9.00;;;;;28.04;38.43;101099.13;5028583;28;48639;-85
2022/06/03 11:21:26;;;;;;;;;12.25;11.00;;;;;28.40;39.20;101097.34;5025201;28;62129;-83
2022/06/03 11:23:53;;;;;;;;;12.25;10.00;;;;;28.66;39.29;101108.16;5019032;28;46260;-79
2022/06/03 11:26:22;;;;;;;;;15.50;11.25;;;;;28.78;39.68;101114.09;5015113;28;45406;-93
2022/06/03 11:30:37;;;;;;;;;12.00;11.75;;;;;28.61;37.41;101118.47;5116756;27;45417;-84
2022/06/03 11:33:08;;;;;;;;;15.25;14.00;;;;;28.14;36.93;101116.81;5121104;27;45877;-82
2022/06/03 11:35:45;;;;;;;;;13.25;12.00;;;;;27.68;37.64;101129.25;5096736;27;45799;-83
2022/06/03 11:38:14;;;;;;;;;13.75;11.75;;;;;27.25;38.21;101117.25;5077446;27;45775;-85
2022/06/03 11:40:43;;;;;;;;;12.50;11.50;;;;;26.98;38.99;101121.47;5091735;27;45487;-87
2022/06/03 11:43:17;;;;;;;;;15.00;13.50;;;;;26.75;39.12;101120.09;5092839;27;45430;-86
2022/06/03 11:45:46;;;;;;;;;11.25;10.75;;;;;26.56;39.82;101116.41;5087470;27;45485;-85
2022/06/03 11:48:11;;;;;;;;;15.50;12.25;;;;;26.38;39.92;101113.56;5089674;27;45648;-84
2022/06/03 11:50:37;;;;;;;;;14.00;12.50;;;;;26.21;40.28;101116.94;5108734;27;45417;-85
2022/06/03 11:53:03;;;;;;;;;15.00;12.50;;;;;26.06;40.74;101127.97;5104483;27;45438;-89
2022/06/03 11:55:29;;;;;;;;;12.25;12.00;;;;;25.90;42.06;101124.94;5076139;27;45359;-86
2022/06/03 11:58:39;;;;;;;;;12.00;9.50;;;;;25.78;42.10;101126.88;5087852;27;45598;-86
2022/06/03 12:01:07;;;;;;;;;12.00;10.00;;;;;25.60;42.95;101128.47;5096492;27;46385;-86
2022/06/03 12:03:51;;;;;;;;;8.50;8.50;;;;;25.53;43.46;101124.63;5105215;27;45549;-86
2022/06/03 12:06:32;;;;;;;;;11.75;8.75;;;;;25.44;43.56;101120.94;5092302;27;46056;-85
2022/06/03 12:09:17;;;;;;;;;12.25;10.25;;;;;25.38;43.61;101122.31;5087881;27;45408;-85
2022/06/03 12:14:37;;;;;;;;;11.00;7.75;;;;;25.24;44.66;101120.84;5098802;27;45366;-86
2022/06/03 12:17:08;;;;;;;;;11.50;8.25;;;;;25.15;43.77;101124.25;5095674;27;45466;-86
2022/06/03 12:19:43;;;;;;;;;10.00;9.25;;;;;25.11;44.20;101123.66;5110368;27;45834;-86
2022/06/03 12:22:30;;;;;;;;;6.75;6.75;;;;;24.97;44.06;101115.13;5069067;27;47600;-86
2022/06/03 12:24:59;;;;;;;;;12.25;8.75;;;;;24.85;44.29;101124.97;5094620;27;45806;-86
2022/06/03 12:27:37;;;;;;;;;8.00;7.00;;;;;24.82;44.75;101119.94;5083904;27;45804;-87
2022/06/03 12:30:09;;;;;;;;;9.00;7.50;;;;;24.81;46.27;101121.72;5083995;27;45506;-87
2022/06/03 12:32:34;;;;;;;;;7.25;6.25;;;;;24.78;44.93;101123.84;5096118;27;46550;-86
2022/06/03 12:35:38;;;;;;;;;8.50;6.50;;;;;24.65;46.07;101124.84;5073086;27;45819;-86
2022/06/03 12:38:24;;;;;;;;;9.25;8.75;;;;;24.56;46.38;101125.59;5116950;27;45515;-85
2022/06/03 12:40:52;;;;;;;;;10.50;9.50;;;;;24.46;48.53;101129.94;5100388;27;45452;-87
2022/06/03 12:43:29;;;;;;;;;6.00;5.25;;;;;24.29;50.69;101136.63;5094306;27;45780;-87
2022/06/03 12:46:09;;;;;;;;;8.50;7.75;;;;;24.02;52.60;101129.91;5096783;27;45783;-87
2022/06/03 12:48:47;;;;;;;;;10.75;9.50;;;;;23.74;53.08;101132.03;5093850;27;45492;-86
2022/06/03 12:51:31;;;;;;;;;8.75;7.25;;;;;23.41;55.08;101127.53;5086758;27;45549;-85
2022/06/03 12:54:07;;;;;;;;;8.00;7.00;;;;;23.16;58.01;101137.38;5093304;27;46575;-85
2022/06/03 12:56:35;;;;;;;;;6.75;6.50;;;;;23.02;57.28;101134.06;5089349;27;45977;-86
2022/06/03 12:59:18;;;;;;;;;9.50;9.50;;;;;22.89;58.33;101134.13;5094116;27;45485;-86
2022/06/03 13:01:49;;;;;;;;;9.00;8.00;;;;;22.81;57.44;101129.38;5094823;27;48698;-86
2022/06/03 13:04:36;;;;;;;;;11.00;7.75;;;;;22.81;57.64;101130.22;5103640;27;46416;-85
2022/06/03 13:07:26;;;;;;;;;8.50;7.00;;;;;22.89;59.19;101119.03;5090947;27;45767;-85
2022/06/03 13:09:55;;;;;;;;;10.50;9.75;;;;;22.95;57.83;101121.22;5093458;27;45557;-85
2022/06/03 13:12:27;;;;;;;;;8.00;8.00;;;;;23.06;59.88;101124.91;5092369;27;45537;-85
2022/06/03 13:14:53;;;;;;;;;10.00;8.00;;;;;23.07;57.94;101116.84;5091119;27;45577;-86
2022/06/03 13:18:05;;;;;;;;;11.25;9.00;;;;;23.12;57.96;101127.09;5066686;27;45535;-86
2022/06/03 13:20:47;;;;;;;;;11.00;9.75;;;;;23.13;57.99;101123.50;5085689;27;45428;-86
2022/06/03 13:23:19;;;;;;;;;10.00;8.00;;;;;23.11;57.64;101120.13;5095378;27;45505;-86
2022/06/03 13:25:44;;;;;;;;;11.50;9.75;;;;;23.10;58.39;101119.25;5095640;27;46821;-86
2022/06/03 13:28:14;;;;;;;;;12.00;10.00;;;;;23.12;59.06;101120.00;5089510;27;45780;-85
2022/06/03 13:30:40;;;;;;;;;9.00;9.00;;;;;23.09;57.99;101130.84;5087387;27;45472;-85
2022/06/03 13:33:32;;;;;;;;;12.00;10.50;;;;;22.99;59.02;101128.00;5075851;27;45438;-86
2022/06/03 13:36:05;;;;;;;;;9.75;8.75;;;;;22.91;59.57;101134.84;5090661;27;46758;-85
2022/06/03 13:38:57;;;;;;;;;12.75;10.25;;;;;22.84;58.78;101142.41;5094209;27;45577;-85
2022/06/03 13:44:18;;;;;;;;;8.00;8.00;;;;;22.85;59.80;101137.97;5091770;27;45492;-86
2022/06/03 13:46:48;;;;;;;;;11.75;9.00;;;;;22.86;58.66;101134.34;5088820;27;46168;-84
2022/06/03 13:49:24;;;;;;;;;12.50;10.50;;;;;22.91;59.34;101133.03;5071292;27;45615;-86
2022/06/03 13:51:51;;;;;;;;;11.50;10.00;;;;;23.00;59.06;101123.53;5105640;27;45668;-86
2022/06/03 13:54:28;;;;;;;;;8.25;8.00;;;;;23.03;57.76;101122.47;5068449;27;45493;-87
2022/06/03 13:56:58;;;;;;;;;9.50;8.50;;;;;23.01;58.36;101109.28;5092782;27;48213;-88
2022/06/03 13:59:24;;;;;;;;;10.75;7.75;;;;;23.04;58.47;101111.75;5094013;27;45753;-86
2022/06/03 14:01:50;;;;;;;;;12.00;10.50;;;;;23.05;58.53;101099.31;5076249;27;58685;-86
2022/06/03 14:04:15;;;;;;;;;11.75;10.00;;;;;23.00;59.08;101091.69;5076052;27;45464;-83
2022/06/03 14:06:45;;;;;;;;;9.33;9.00;;;;;22.94;57.82;101094.81;5094273;27;48492;-93
2022/06/03 14:09:18;;;;;;;;;10.25;9.00;;;;;22.85;58.67;101091.03;5067894;27;45677;-89
2022/06/03 14:11:48;;;;;;;;;9.25;8.25;;;;;22.84;59.19;101088.50;5099889;27;45407;-85
2022/06/03 14:14:18;;;;;;;;;9.75;9.25;;;;;22.85;59.53;101093.69;5083948;27;45370;-86
2022/06/03 14:16:51;;;;;;;;;9.00;8.50;;;;;22.92;59.84;101092.28;5088828;27;45735;-85
2022/06/03 14:19:36;;;;;;;;;9.75;9.75;;;;;23.03;60.38;101091.47;5073797;27;45389;-85
2022/06/03 14:22:19;;;;;;;;;10.50;8.25;;;;;23.15;59.07;101093.19;5090796;27;45493;-83
2022/06/03 14:24:56;;;;;;;;;16.50;11.00;;;;;23.24;59.23;101085.50;5089958;27;45881;-82
2022/06/03 14:27:28;;;;;;;;;11.00;10.00;;;;;23.33;58.73;101090.09;5060752;27;45713;-81
2022/06/03 14:29:57;;;;;;;;;12.25;10.25;;;;;23.42;59.01;101083.22;5089521;27;46999;-81
2022/06/03 14:32:24;;;;;;;;;12.50;10.00;;;;;23.48;58.67;101074.78;5064619;28;45540;-82
2022/06/03 14:35:02;;;;;;;;;9.50;9.50;;;;;23.60;59.71;101080.94;5070762;27;45562;-82
2022/06/03 14:37:43;;;;;;;;;15.00;11.25;;;;;23.71;58.63;101083.59;5084331;27;46140;-82
2022/06/03 14:40:13;;;;;;;;;11.00;8.50;;;;;23.75;58.28;101091.22;5080979;27;45577;-82
2022/06/03 14:42:39;;;;;;;;;13.50;11.50;;;;;23.82;58.86;101098.72;5079579;27;45500;-82
2022/06/03 14:45:06;;;;;;;;;11.25;8.00;;;;;23.85;58.47;101088.72;5079335;27;45430;-83
2022/06/03 14:47:35;;;;;;;;;12.75;9.50;;;;;23.92;59.94;101089.03;5076282;27;47560;-82
2022/06/03 14:50:18;;;;;;;;;9.00;9.00;;;;;23.95;57.98;101080.84;5092548;27;45312;-82
2022/06/03 14:52:49;;;;;;;;;11.00;10.25;;;;;23.95;57.97;101083.50;5096815;27;45509;-84
2022/06/03 14:55:42;;;;;;;;;12.00;10.50;;;;;23.90;57.86;101080.34;5071571;27;45380;-86
2022/06/03 14:58:27;;;;;;;;;13.25;9.75;;;;;23.82;57.90;101080.97;5088465;27;46308;-86
2022/06/03 15:01:13;;;;;;;;;11.25;8.75;;;;;23.73;58.34;101079.00;5071408;27;45813;-86
2022/06/03 15:03:49;;;;;;;;;11.75;10.50;;;;;23.64;58.14;101079.72;5079409;27;45467;-84
2022/06/03 15:06:21;;;;;;;;;11.75;11.00;;;;;23.54;59.51;101087.59;5076960;27;45918;-85
2022/06/03 15:09:10;;;;;;;;;8.25;7.75;;;;;23.49;58.07;101089.75;5077180;27;45557;-82
2022/06/03 15:11:37;;;;;;;;;7.00;4.00;;;;;23.39;57.46;101094.94;5092771;27;45410;-85
2022/06/03 15:14:07;;;;;;;;;5.00;5.00;;;;;23.26;56.97;101091.53;5090597;27;45425;-82
2022/06/03 15:16:32;;;;;;;;;6.00;6.00;;;;;23.16;57.77;101097.56;5084685;27;45597;-83
2022/06/03 15:18:58;;;;;;;;;5.25;5.00;;;;;23.11;58.60;101096.22;5079137;27;48246;-82
2022/06/03 15:21:25;;;;;;;;;6.00;5.00;;;;;23.07;58.38;101102.69;5092088;27;69299;-82
2022/06/03 15:23:53;;;;;;;;;6.00;5.75;;;;;23.02;58.35;101100.38;5089054;27;45439;-82
2022/06/03 15:26:19;;;;;;;;;7.00;5.00;;;;;23.03;59.48;101111.84;5097721;27;45469;-82
2022/06/03 15:28:48;;;;;;;;;5.50;4.75;;;;;23.03;58.01;101109.19;5091639;27;46301;-82
2022/06/03 15:31:18;;;;;;;;;6.00;5.00;;;;;23.04;59.00;101118.88;5076928;27;45427;-83
2022/06/03 15:33:54;;;;;;;;;7.25;5.25;;;;;23.07;58.93;101124.81;5084402;27;45643;-82
2022/06/03 15:36:23;;;;;;;;;6.25;4.75;;;;;23.09;57.74;101122.88;5088260;27;45437;-82
2022/06/03 15:39:10;;;;;;;;;5.00;5.00;;;;;23.12;58.18;101125.31;5056693;27;51974;-82
2022/06/03 15:41:43;;;;;;;;;7.00;6.00;;;;;23.21;58.88;101126.41;5070722;27;45878;-82
2022/06/03 15:44:09;;;;;;;;;7.25;6.00;;;;;23.30;57.76;101131.00;5084550;27;45486;-82
2022/06/03 15:46:39;;;;;;;;;10.00;7.25;;;;;23.36;56.94;101135.00;5091998;27;69042;-82
2022/06/03 15:49:09;;;;;;;;;8.00;7.00;;;;;23.40;57.38;101131.16;5089011;27;47243;-84
2022/06/03 15:52:01;;;;;;;;;8.00;6.00;;;;;23.42;56.22;101129.25;5086327;27;45749;-84
2022/06/03 15:54:27;;;;;;;;;7.75;6.00;;;;;23.54;58.09;101135.41;5102773;27;45466;-84
2022/06/03 15:57:11;;;;;;;;;9.75;6.50;;;;;23.59;56.22;101135.91;5093278;27;45819;-85
2022/06/03 15:59:37;;;;;;;;;6.50;5.25;;;;;23.57;56.33;101130.72;5091801;27;46130;-85
2022/06/03 16:02:18;;;;;;;;;5.33;5.00;;;;;23.63;55.18;101126.72;5088639;27;45560;-85
2022/06/03 16:05:08;;;;;;;;;5.00;4.75;;;;;23.69;55.94;101126.22;5086149;27;45544;-83
2022/06/03 16:07:58;;;;;;;;;6.00;6.00;;;;;23.84;55.71;101126.03;5075744;27;45344;-84
2022/06/03 16:11:09;;;;;;;;;6.00;5.00;;;;;24.11;54.80;101112.38;5075021;27;46577;-84
2022/06/03 16:13:46;;;;;;;;;8.25;5.25;;;;;24.36;54.79;101113.88;5045300;28;46047;-83
2022/06/03 16:16:29;;;;;;;;;6.00;6.00;;;;;24.49;53.18;101106.56;5052233;28;45366;-84
2022/06/03 16:19:01;;;;;;;;;7.00;6.00;;;;;24.65;52.84;101110.69;5055162;28;45472;-84
2022/06/03 16:21:38;;;;;;;;;6.75;6.75;;;;;24.78;53.27;101103.38;5048687;28;46555;-84
2022/06/03 16:24:22;;;;;;;;;7.00;6.00;;;;;24.97;51.62;101105.31;5064497;28;45771;-84
2022/06/03 16:26:51;;;;;;;;;6.00;5.50;;;;;25.07;51.15;101102.72;5043154;28;45414;-84
2022/06/03 16:29:38;;;;;;;;;6.00;4.50;;;;;25.24;51.39;101099.53;5045436;28;45516;-84
2022/06/03 16:32:03;;;;;;;;;3.50;3.50;;;;;25.40;51.83;101107.03;5039662;28;45909;-84
2022/06/03 16:34:41;;;;;;;;;4.00;3.67;;;;;25.64;50.28;101112.06;5038771;28;45358;-84
2022/06/03 16:37:27;;;;;;;;;5.75;5.75;;;;;25.82;48.11;101106.94;5052802;28;45352;-83
2022/06/03 16:40:23;;;;;;;;;4.00;4.00;;;;;25.86;48.08;101105.69;5038488;28;45549;-82
2022/06/03 16:43:17;;;;;;;;;3.00;3.00;;;;;26.03;48.10;101103.41;5049915;28;46927;-82
2022/06/03 16:46:19;;;;;;;;;6.00;5.00;;;;;26.25;47.79;101102.31;4953884;28;45765;-83
2022/06/03 16:48:53;;;;;;;;;3.25;3.25;;;;;26.42;47.97;101103.47;4952776;28;45562;-82
2022/06/03 16:51:20;;;;;;;;;4.00;3.25;;;;;26.54;46.34;101101.50;5006121;28;45489;-82
2022/06/03 16:53:46;;;;;;;;;4.00;3.00;;;;;26.53;47.16;101097.16;5010932;28;46067;-83
2022/06/03 16:56:16;;;;;;;;;4.50;4.00;;;;;26.47;46.57;101103.91;5003749;28;45792;-83
2022/06/03 16:58:55;;;;;;;;;4.00;4.00;;;;;26.43;46.88;101102.50;5011139;28;45427;-83
2022/06/03 17:01:34;;;;;;;;;4.00;3.25;;;;;26.37;45.82;101101.19;5001120;28;45628;-82
2022/06/03 17:04:00;;;;;;;;;3.00;3.00;;;;;26.33;47.22;101109.63;5005252;28;46643;-82
2022/06/03 17:06:26;;;;;;;;;3.00;3.00;;;;;26.29;45.81;101101.06;4992654;28;66968;-82
2022/06/03 17:08:55;;;;;;;;;4.25;4.25;;;;;26.24;46.15;101111.28;5004024;28;45433;-82
2022/06/03 17:11:24;;;;;;;;;3.00;3.00;;;;;26.13;45.90;101108.75;5011031;28;46046;-82
2022/06/03 17:13:51;;;;;;;;;3.00;3.00;;;;;26.02;46.02;101112.38;4993345;28;46360;-83
2022/06/03 17:16:17;;;;;;;;;5.00;5.00;;;;;25.91;46.15;101109.78;4990790;28;45642;-83
2022/06/03 17:18:42;;;;;;;;;4.25;4.25;;;;;25.76;45.87;101106.63;5003921;28;45526;-82
2022/06/03 17:21:12;;;;;;;;;4.25;3.25;;;;;25.62;46.09;101106.03;5002214;27;45386;-81
2022/06/03 17:23:56;;;;;;;;;4.00;4.00;;;;;25.57;46.55;101105.56;5095192;27;46426;-80
2022/06/03 17:27:04;;;;;;;;;4.00;4.00;;;;;25.49;46.42;101100.06;5089720;27;46152;-82
2022/06/03 17:29:59;;;;;;;;;4.75;4.75;;;;;25.42;46.81;101102.41;5064754;27;45517;-83
2022/06/03 17:32:45;;;;;;;;;4.00;4.00;;;;;25.30;47.47;101096.31;5087228;27;45292;-84
2022/06/03 17:35:26;;;;;;;;;4.50;4.50;;;;;25.20;47.97;101105.19;5062313;28;46279;-82
2022/06/03 17:38:17;;;;;;;;;2.75;2.75;;;;;25.10;48.06;101105.97;5072724;27;45578;-82
2022/06/03 17:41:04;;;;;;;;;2.25;1.75;;;;;25.07;47.84;101108.06;5071529;28;45511;-81
2022/06/03 17:43:39;;;;;;;;;4.25;2.25;;;;;25.00;47.01;101107.75;5070765;28;45345;-81
2022/06/03 17:46:55;;;;;;;;;3.50;2.75;;;;;24.91;47.86;101106.69;5048795;28;45544;-81
2022/06/03 17:49:29;;;;;;;;;4.50;4.50;;;;;24.78;47.70;101107.84;4993760;28;45416;-81
2022/06/03 17:55:39;;;;;;;;;4.00;4.00;;;;;24.59;47.83;101109.38;4981454;28;45564;-82
2022/06/03 17:58:13;;;;;;;;;5.00;4.00;;;;;24.57;47.74;101107.78;4974706;28;47116;-81
2022/06/03 18:00:55;;;;;;;;;5.00;5.00;;;;;24.54;48.35;101108.91;4992153;28;45513;-85
2022/06/03 18:03:36;;;;;;;;;4.75;4.00;;;;;24.48;47.76;101118.22;4975994;28;45435;-82
2022/06/03 18:06:19;;;;;;;;;9.00;5.75;;;;;24.41;48.32;101114.34;4976361;28;45897;-86
2022/06/03 18:09:12;;;;;;;;;7.25;4.50;;;;;24.34;48.26;101116.66;4976804;28;46401;-83
2022/06/03 18:11:39;;;;;;;;;5.75;5.25;;;;;24.25;48.44;101113.91;4996951;28;45912;-90
2022/06/03 18:14:08;;;;;;;;;5.75;4.00;;;;;24.16;48.87;101120.78;4997027;28;45409;-85
2022/06/03 18:16:39;;;;;;;;;5.25;5.00;;;;;24.12;48.86;101120.19;5013110;28;45512;-88
2022/06/03 18:19:20;;;;;;;;;5.75;5.25;;;;;24.05;48.94;101112.84;5012867;28;45490;-86
2022/06/03 18:21:52;;;;;;;;;6.00;5.00;;;;;24.00;49.32;101112.38;4995640;28;45757;-81
2022/06/03 18:24:38;;;;;;;;;7.50;5.75;;;;;23.93;49.50;101112.03;5030795;27;45489;-83
2022/06/03 18:27:18;;;;;;;;;10.50;7.00;;;;;23.91;50.66;101108.63;5094457;27;45421;-83
2022/06/03 18:30:17;;;;;;;;;7.25;6.75;;;;;23.88;51.34;101104.38;5095108;27;45668;-82
2022/06/03 18:32:53;;;;;;;;;9.25;7.25;;;;;23.87;50.46;101102.72;5094601;27;45763;-81
2022/06/03 18:35:43;;;;;;;;;6.50;6.00;;;;;23.85;50.06;101095.84;5080157;27;45602;-82
2022/06/03 18:38:32;;;;;;;;;7.00;6.50;;;;;23.83;50.49;101106.59;5089098;27;45498;-83
2022/06/03 18:41:25;;;;;;;;;10.75;8.75;;;;;23.81;50.67;101105.88;5085092;27;46193;-82
2022/06/03 18:44:20;;;;;;;;;11.75;7.75;;;;;23.77;50.84;101112.34;5079536;27;46096;-81
2022/06/03 18:46:48;;;;;;;;;8.00;8.00;;;;;23.72;50.57;101107.41;5111215;27;45516;-81
2022/06/03 18:49:55;;;;;;;;;10.50;7.75;;;;;23.70;51.19;101106.69;5082887;27;45636;-81
2022/06/03 18:52:26;;;;;;;;;11.75;9.00;;;;;23.62;51.75;101098.44;5095277;27;46264;-82
2022/06/03 18:54:52;;;;;;;;;8.75;8.75;;;;;23.56;51.43;101098.94;5083467;27;45366;-86
2022/06/03 18:58:03;;;;;;;;;8.25;8.25;;;;;23.47;51.39;101089.88;5084902;27;45466;-83
2022/06/03 19:00:31;;;;;;;;;8.25;8.00;;;;;23.39;53.27;101100.25;5033255;28;45523;-83
2022/06/03 19:03:30;;;;;;;;;10.25;10.25;;;;;23.27;52.73;101094.09;5052078;28;47192;-85
2022/06/03 19:06:24;;;;;;;;;13.25;9.50;;;;;23.18;52.25;101100.09;5020684;28;45797;-82
2022/06/03 19:09:02;;;;;;;;;11.00;8.25;;;;;23.09;53.56;101101.63;5036214;28;45421;-82
2022/06/03 19:11:45;;;;;;;;;8.75;8.75;;;;;23.05;53.17;101108.16;5049417;28;45467;-81
2022/06/03 19:14:11;;;;;;;;;10.75;8.00;;;;;;;;5049751;28;45439;-85
2022/06/03 19:16:59;;;;;;;;;15.00;10.25;;;;;22.89;53.68;101099.63;5052580;28;45461;-86
2022/06/03 19:19:33;;;;;;;;;19.25;14.25;;;;;22.83;53.39;101094.78;5041309;28;45449;-87
2022/06/03 19:22:17;;;;;;;;;17.75;16.00;;;;;22.76;54.86;101102.34;5050389;28;45435;-86
2022/06/03 19:25:16;;;;;;;;;17.50;13.50;;;;;22.68;53.96;101092.31;5048311;28;46223;-85
2022/06/03 19:27:43;;;;;;;;;18.25;15.25;;;;;22.61;53.90;101089.25;5049747;28;45450;-85
2022/06/03 19:30:09;;;;;;;;;20.25;16.75;;;;;22.56;54.61;101096.69;5018356;28;45538;-86
2022/06/03 19:32:36;;;;;;;;;19.75;17.50;;;;;22.51;54.31;101098.00;5049309;28;45590;-85
2022/06/03 19:35:02;;;;;;;;;18.50;14.50;;;;;22.49;54.72;101094.59;5040745;27;45294;-85
2022/06/03 19:37:38;;;;;;;;;19.50;16.50;;;;;22.45;55.72;101098.47;5093066;27;45286;-86
2022/06/03 19:40:22;;;;;;;;;16.75;14.75;;;;;22.38;54.60;101095.38;5092028;27;45442;-89
2022/06/03 19:43:05;;;;;;;;;14.75;13.25;;;;;22.31;54.77;101108.28;5083863;27;45549;-88
2022/06/03 19:45:49;;;;;;;;;13.50;12.75;;;;;22.26;54.95;101105.09;5081620;27;46500;-86
2022/06/03 19:48:53;;;;;;;;;12.75;11.25;;;;;22.21;55.41;101104.53;5090942;27;48268;-86
2022/06/03 19:51:31;;;;;;;;;13.25;11.75;;;;;22.15;55.45;101105.00;5076627;27;45585;-86
2022/06/03 19:54:10;;;;;;;;;17.50;12.00;;;;;22.11;56.06;101111.47;5085685;27;45404;-86
2022/06/03 19:56:40;;;;;;;;;15.00;12.25;;;;;22.06;55.89;101119.75;5081750;27;45513;-87
2022/06/03 19:59:08;;;;;;;;;16.00;15.50;;;;;22.00;56.52;101126.34;5070627;27;45343;-88
2022/06/03 20:01:33;;;;;;;;;17.00;16.00;;;;;21.94;56.53;101126.78;5087907;27;45478;-90
2022/06/03 20:04:00;;;;;;;;;14.75;13.50;;;;;21.89;56.31;101133.34;5114083;27;45564;-89
2022/06/03 20:06:34;;;;;;;;;13.25;13.25;;;;;21.82;56.67;101138.22;5087692;27;46317;-89
2022/06/03 20:09:23;;;;;;;;;12.00;10.25;;;;;21.79;56.78;101143.75;5064699;27;45678;-89
2022/06/03 20:14:57;;;;;;;;;13.00;13.00;;;;;21.67;57.88;101156.03;5087009;27;45426;-90
2022/06/03 20:17:24;;;;;;;;;15.50;14.00;;;;;21.63;58.17;101167.81;5110808;27;46318;-91
2022/06/03 20:19:56;;;;;;;;;13.50;13.00;;;;;21.59;58.19;101167.16;5098425;27;45578;-91
2022/06/03 20:22:33;;;;;;;;;12.75;12.75;;;;;21.58;59.02;101164.63;5078521;27;45384;-90
2022/06/03 20:25:02;;;;;;;;;14.00;14.00;;;;;21.53;59.21;101162.31;5099421;27;45256;-91
2022/06/03 20:27:34;;;;;;;;;14.25;13.75;;;;;21.52;59.45;101162.41;5067081;27;47394;-90
2022/06/03 20:30:11;;;;;;;;;18.75;16.00;;;;;21.49;58.88;101160.81;5089529;27;45492;-90
2022/06/03 20:32:37;;;;;;;;;21.00;17.00;;;;;21.45;59.95;101162.84;5101274;27;45490;-90
2022/06/03 20:35:20;;;;;;;;;18.50;17.00;;;;;21.43;60.30;101153.25;5094188;27;45419;-90
2022/06/03 20:38:00;;;;;;;;;21.50;18.75;;;;;21.41;60.40;101155.16;5095880;27;48232;-91
2022/06/03 20:40:38;;;;;;;;;20.25;18.50;;;;;21.37;60.96;101151.88;5077277;27;45706;-91
2022/06/03 20:43:13;;;;;;;;;21.00;16.50;;;;;21.33;61.12;101152.19;5078258;27;45250;-90
2022/06/03 20:45:44;;;;;;;;;21.00;19.50;;;;;21.29;61.37;101150.72;5093497;27;45451;-89
2022/06/03 20:48:44;;;;;;;;;18.75;18.00;;;;;21.24;61.67;101149.19;5093419;27;48213;-88
2022/06/03 20:51:25;;;;;;;;;23.50;21.00;;;;;21.19;61.36;101142.50;5090298;27;46027;-89
2022/06/03 20:53:50;;;;;;;;;23.75;19.75;;;;;21.17;61.64;101133.81;5060503;27;45378;-89
2022/06/03 20:56:25;;;;;;;;;21.50;20.75;;;;;21.14;61.84;101136.69;5095662;27;45609;-89
2022/06/03 20:59:10;;;;;;;;;21.25;20.75;;;;;21.10;61.64;101149.28;5079624;27;47522;-89
2022/06/03 21:01:40;;;;;;;;;21.75;21.00;;;;;21.07;62.26;101152.13;5095563;27;45362;-89
2022/06/03 21:12:48;;;;;;;;;23.00;21.75;;;;;20.92;62.57;101164.59;5093890;27;45493;-88
2022/06/03 21:15:13;;;;;;;;;22.50;20.00;;;;;20.87;63.08;101167.50;5095337;27;45296;-88
2022/06/03 21:17:40;;;;;;;;;22.00;21.00;;;;;20.84;62.76;101169.53;5076746;27;45437;-88
2022/06/03 21:20:12;;;;;;;;;28.25;24.25;;;;;20.81;64.01;101167.91;5094947;27;45539;-89
2022/06/03 21:22:58;;;;;;;;;24.25;20.00;;;;;20.77;63.23;101171.72;5098293;27;45413;-89
2022/06/03 21:25:23;;;;;;;;;25.00;21.00;;;;;20.73;63.46;101172.88;5031137;28;45442;-89
2022/06/03 21:27:49;;;;;;;;;21.00;17.00;;;;;20.69;62.95;101174.88;5035594;28;45615;-89
2022/06/03 21:30:15;;;;;;;;;26.25;22.25;;;;;20.65;63.93;101175.16;5051432;28;45516;-89
2022/06/03 21:32:58;;;;;;;;;18.00;14.75;;;;;20.60;63.47;101167.53;5053240;28;45480;-88
2022/06/03 21:35:37;;;;;;;;;27.00;23.50;;;;;20.56;63.29;101173.94;5053286;28;45815;-88
2022/06/03 21:38:20;;;;;;;;;22.75;18.00;;;;;20.55;63.53;101174.03;5049575;28;45584;-88
2022/06/03 21:40:49;;;;;;;;;21.00;18.75;;;;;20.50;63.59;101175.19;5053124;28;45685;-89
2022/06/03 21:43:14;;;;;;;;;24.00;22.75;;;;;20.48;63.89;101177.03;5005069;28;45275;-89
2022/06/03 21:46:12;;;;;;;;;23.75;20.25;;;;;20.44;63.83;101164.97;5053144;28;45634;-89
2022/06/03 21:49:03;;;;;;;;;19.00;18.00;;;;;20.42;63.66;101169.50;5021542;28;45648;-89
2022/06/03 21:51:34;;;;;;;;;22.25;16.75;;;;;20.39;64.26;101161.78;5052568;28;47480;-89
2022/06/03 21:54:26;;;;;;;;;21.50;17.50;;;;;20.34;63.95;101165.66;5054276;28;45476;-89
2022/06/03 21:56:54;;;;;;;;;20.00;18.00;;;;;20.28;63.62;101169.53;5037567;28;45282;-89
2022/06/03 21:59:39;;;;;;;;;18.00;16.00;;;;;20.23;63.99;101167.19;5054358;28;45505;-89
2022/06/03 22:02:05;;;;;;;;;14.50;14.25;;;;;20.20;64.29;101174.47;5064111;27;46370;-89
2022/06/03 22:04:31;;;;;;;;;20.75;15.50;;;;;20.15;64.54;101164.19;5041467;27;45478;-90
2022/06/03 22:06:56;;;;;;;;;19.00;14.25;;;;;20.11;64.04;101168.81;5046901;28;45524;-89
2022/06/03 22:09:21;;;;;;;;;18.00;15.50;;;;;20.07;64.17;101177.84;5063715;28;45619;-89
2022/06/03 22:14:31;;;;;;;;;19.50;19.50;;;;;19.95;64.04;101177.75;5076771;27;45506;-89
2022/06/03 22:16:56;;;;;;;;;19.50;16.75;;;;;19.89;64.70;101174.56;5042075;27;50497;-89
2022/06/03 22:19:22;;;;;;;;;18.00;15.75;;;;;19.86;64.92;101172.09;5078425;27;45538;-89
2022/06/03 22:21:47;;;;;;;;;17.25;15.50;;;;;19.83;64.49;101176.72;5061461;27;47486;-89
2022/06/03 22:24:13;;;;;;;;;17.75;17.75;;;;;19.80;64.48;101193.63;5087036;27;45389;-89
2022/06/03 22:26:47;;;;;;;;;17.00;15.00;;;;;19.77;64.66;101199.06;5079633;27;45521;-89
2022/06/03 22:29:25;;;;;;;;;21.00;18.75;;;;;19.71;64.83;101210.84;5095547;27;45446;-90
2022/06/03 22:32:15;;;;;;;;;20.00;17.75;;;;;19.68;64.99;101220.72;5105840;27;48552;-88
2022/06/03 22:34:51;;;;;;;;;24.25;19.00;;;;;19.62;65.36;101223.75;5123426;27;45262;-89
2022/06/03 22:40:46;;;;;;;;;19.25;18.50;;;;;19.53;65.28;101235.69;5093497;27;45565;-89
2022/06/03 22:43:33;;;;;;;;;18.25;18.00;;;;;19.52;65.40;101231.38;5095575;27;45470;-90
2022/06/03 22:45:59;;;;;;;;;23.75;19.75;;;;;19.50;65.18;101227.94;5097050;27;45349;-89
2022/06/03 22:48:26;;;;;;;;;20.25;19.00;;;;;19.49;65.39;101224.44;5070723;27;45629;-90
2022/06/03 22:50:52;;;;;;;;;17.00;15.00;;;;;19.48;65.39;101229.81;5061859;27;45285;-90
2022/06/03 22:53:17;;;;;;;;;27.25;20.25;;;;;19.45;65.62;101230.00;5091649;27;46305;-90
2022/06/03 22:55:43;;;;;;;;;18.25;17.00;;;;;19.42;65.14;101232.81;5093906;27;45392;-90
2022/06/03 22:58:08;;;;;;;;;21.00;19.00;;;;;19.38;65.44;101233.94;5075632;27;45472;-89
2022/06/03 23:00:33;;;;;;;;;22.00;18.00;;;;;19.37;65.82;101234.88;5092939;27;45236;-90
2022/06/03 23:03:00;;;;;;;;;26.00;17.00;;;;;19.34;65.51;101230.63;5076643;27;48438;-90
2022/06/03 23:05:26;;;;;;;;;20.50;19.25;;;;;19.30;65.75;101229.13;5093753;27;45446;-90
2022/06/03 23:07:51;;;;;;;;;19.75;19.50;;;;;19.28;66.14;101226.56;5059088;27;53583;-90
2022/06/03 23:10:17;;;;;;;;;22.25;19.25;;;;;19.24;65.71;101221.53;5057767;28;45730;-90
2022/06/03 23:12:42;;;;;;;;;23.25;20.00;;;;;19.22;65.51;101218.97;5092302;27;46227;-90
2022/06/03 23:15:11;;;;;;;;;21.75;18.25;;;;;19.19;65.72;101216.53;5093429;27;45326;-90
2022/06/03 23:17:37;;;;;;;;;16.00;16.00;;;;;19.17;65.76;101214.91;5094453;27;45534;-90
2022/06/03 23:20:27;;;;;;;;;19.75;19.00;;;;;19.15;65.86;101209.75;5057987;27;45580;-89
2022/06/03 23:22:52;;;;;;;;;26.50;18.50;;;;;19.11;66.23;101213.47;5095482;27;46991;-90
2022/06/03 23:25:18;;;;;;;;;20.25;18.00;;;;;19.09;66.35;101216.22;5057326;28;45270;-90
2022/06/03 23:27:43;;;;;;;;;20.50;17.50;;;;;19.05;66.30;101216.47;5073578;27;50020;-90
2022/06/03 23:30:09;;;;;;;;;23.00;20.00;;;;;19.01;66.04;101210.50;5059300;27;45473;-90
2022/06/03 23:32:37;;;;;;;;;21.00;16.50;;;;;19.01;66.04;101213.16;5093014;27;45544;-90
2022/06/03 23:35:06;;;;;;;;;20.75;17.75;;;;;18.99;66.27;101217.66;5058930;27;45522;-89
2022/06/03 23:37:32;;;;;;;;;23.75;21.00;;;;;18.97;66.62;101210.78;5094215;27;45365;-89